createdAt,value
2022-10-24T00:01:27.113Z,55.50
2022-10-24T00:03:54.846Z,55.30
2022-10-24T00:06:22.529Z,54.60
2022-10-24T00:08:52.089Z,56.20
2022-10-24T00:11:23.952Z,55.90
2022-10-24T00:13:52.808Z,56.70
2022-10-24T00:16:20.444Z,56.10
2022-10-24T00:18:48.487Z,55.20
2022-10-24T00:21:16.117Z,54.50
2022-10-24T00:23:43.642Z,54.40
2022-10-24T00:26:12.007Z,54.50
2022-10-24T00:28:40.342Z,54.20
2022-10-24T00:31:13.984Z,54.90
2022-10-24T00:33:43.176Z,54.90
2022-10-24T00:36:16.525Z,54.90
2022-10-24T00:38:44.268Z,54.10
2022-10-24T00:41:20.461Z,54.20
2022-10-24T00:43:48.332Z,55.90
2022-10-24T00:46:17.424Z,53.60
2022-10-24T00:48:53.915Z,56.00
2022-10-24T00:51:24.798Z,55.60
2022-10-24T00:54:05.219Z,54.80
2022-10-24T00:56:37.487Z,53.50
2022-10-24T00:59:06.122Z,55.80
2022-10-24T01:01:34.439Z,56.60
2022-10-24T01:04:02.776Z,57.30
2022-10-24T01:06:39.657Z,55.40
2022-10-24T01:09:10.047Z,54.00
2022-10-24T01:11:40.556Z,52.70
2022-10-24T01:14:31.455Z,52.70
2022-10-24T01:17:15.248Z,51.90
2022-10-24T01:19:52.197Z,52.70
2022-10-24T01:22:24.638Z,52.10
2022-10-24T01:24:59.663Z,52.80
2022-10-24T01:27:32.668Z,51.30
2022-10-24T01:30:08.327Z,53.30
2022-10-24T01:32:45.072Z,52.40
2022-10-24T01:35:26.532Z,52.40
2022-10-24T01:38:00.838Z,52.30
2022-10-24T01:40:33.667Z,52.50
2022-10-24T01:43:07.683Z,53.40
2022-10-24T01:45:37.168Z,52.80
2022-10-24T01:48:07.407Z,52.80
2022-10-24T01:50:36.712Z,52.00
2022-10-24T01:53:05.180Z,51.30
2022-10-24T01:55:33.237Z,52.00
2022-10-24T01:58:01.427Z,51.20
2022-10-24T02:00:29.164Z,51.40
2022-10-24T02:03:26.184Z,50.20
2022-10-24T02:05:59.426Z,50.10
2022-10-24T02:08:33.676Z,51.60
2022-10-24T02:11:02.908Z,50.60
2022-10-24T02:13:42.240Z,51.20
2022-10-24T02:16:09.805Z,51.20
2022-10-24T02:18:38.238Z,51.10
2022-10-24T02:21:29.385Z,52.20
2022-10-24T02:24:12.355Z,51.20
2022-10-24T02:26:47.748Z,52.10
2022-10-24T02:29:41.727Z,53.00
2022-10-24T02:32:14.304Z,52.00
2022-10-24T02:34:42.317Z,53.20
2022-10-24T02:37:11.772Z,53.10
2022-10-24T02:39:40.907Z,51.60
2022-10-24T02:42:08.999Z,51.70
2022-10-24T02:44:36.831Z,50.40
2022-10-24T02:47:05.976Z,50.10
2022-10-24T02:49:33.965Z,49.70
2022-10-24T02:52:01.773Z,50.10
2022-10-24T02:54:29.290Z,48.50
2022-10-24T02:57:00.289Z,47.60
2022-10-24T02:59:28.346Z,47.20
2022-10-24T03:01:56.474Z,46.90
2022-10-24T03:04:24.222Z,45.90
2022-10-24T03:06:53.267Z,47.20
2022-10-24T03:09:20.757Z,46.00
2022-10-24T03:11:48.373Z,43.90
2022-10-24T03:14:15.997Z,43.90
2022-10-24T03:16:43.586Z,43.80
2022-10-24T03:19:11.105Z,44.20
2022-10-24T03:21:40.101Z,43.10
2022-10-24T03:26:40.508Z,41.40
2022-10-24T03:29:08.086Z,41.70
2022-10-24T03:31:36.525Z,40.70
2022-10-24T03:34:04.380Z,41.20
2022-10-24T03:36:32.063Z,40.50
2022-10-24T03:38:59.621Z,41.00
2022-10-24T03:41:27.291Z,40.50
2022-10-24T03:43:54.912Z,40.20
2022-10-24T03:46:22.715Z,40.20
2022-10-24T03:48:50.301Z,40.30
2022-10-24T03:51:17.867Z,39.50
2022-10-24T03:53:45.466Z,39.50
2022-10-24T03:56:13.101Z,39.60
2022-10-24T03:58:40.617Z,41.20
2022-10-24T04:01:10.163Z,39.70
2022-10-24T04:03:37.728Z,39.20
2022-10-24T04:06:05.365Z,40.10
2022-10-24T04:08:32.996Z,40.70
2022-10-24T04:11:00.579Z,39.90
2022-10-24T04:13:28.992Z,39.00
2022-10-24T04:15:56.496Z,38.00
2022-10-24T04:18:24.323Z,40.10
2022-10-24T04:20:51.873Z,38.90
2022-10-24T04:23:19.350Z,38.80
2022-10-24T04:25:47.091Z,38.50
2022-10-24T04:28:14.592Z,39.80
2022-10-24T04:33:11.278Z,37.40
2022-10-24T04:35:38.807Z,38.30
2022-10-24T04:38:06.352Z,37.50
2022-10-24T04:40:34.360Z,38.40
2022-10-24T04:43:01.867Z,39.10
2022-10-24T04:45:29.404Z,39.70
2022-10-24T04:47:56.904Z,37.80
2022-10-24T04:50:24.696Z,39.20
2022-10-24T04:52:52.228Z,37.90
2022-10-24T04:55:19.748Z,38.60
2022-10-24T04:57:47.406Z,40.40
2022-10-24T05:00:15.753Z,39.70
2022-10-24T05:02:43.303Z,39.50
2022-10-24T05:05:10.912Z,39.30
2022-10-24T05:07:38.513Z,40.00
2022-10-24T05:10:06.446Z,38.80
2022-10-24T05:12:34.092Z,39.10
2022-10-24T05:15:01.581Z,39.90
2022-10-24T05:17:29.161Z,39.40
2022-10-24T05:19:56.743Z,40.40
2022-10-24T05:22:24.280Z,40.80
2022-10-24T05:24:52.148Z,39.70
2022-10-24T05:27:24.703Z,41.40
2022-10-24T05:29:52.754Z,39.10
2022-10-24T05:32:22.336Z,39.30
2022-10-24T05:34:50.723Z,39.40
2022-10-24T05:37:18.611Z,39.50
2022-10-24T05:39:46.185Z,39.20
2022-10-24T05:42:13.783Z,39.30
2022-10-24T05:44:41.309Z,38.70
2022-10-24T05:47:08.879Z,39.80
2022-10-24T05:49:36.477Z,38.50
2022-10-24T05:52:04.689Z,37.70
2022-10-24T05:54:42.498Z,38.10
2022-10-24T05:57:19.701Z,36.40
2022-10-24T05:59:47.181Z,35.80
2022-10-24T06:02:19.571Z,35.20
2022-10-24T06:04:48.239Z,33.90
2022-10-24T06:07:16.405Z,32.80
2022-10-24T06:09:43.939Z,33.30
2022-10-24T06:12:12.311Z,33.00
2022-10-24T06:14:40.063Z,32.50
2022-10-24T06:17:09.247Z,33.40
2022-10-24T06:19:37.062Z,32.90
2022-10-24T06:22:05.869Z,33.90
2022-10-24T06:24:37.900Z,32.40
2022-10-24T06:27:07.192Z,32.50
2022-10-24T06:29:36.445Z,32.10
2022-10-24T06:32:04.088Z,32.10
2022-10-24T06:34:31.737Z,31.40
2022-10-24T06:36:59.295Z,31.50
2022-10-24T06:39:27.116Z,30.80
2022-10-24T06:41:54.603Z,31.50
2022-10-24T06:44:22.153Z,31.00
2022-10-24T06:46:49.715Z,29.90
2022-10-24T06:49:17.483Z,29.10
2022-10-24T06:51:45.011Z,29.60
2022-10-24T06:54:12.962Z,29.40
2022-10-24T06:56:40.463Z,28.90
2022-10-24T06:59:13.736Z,29.70
2022-10-24T07:01:41.467Z,29.10
2022-10-24T07:04:09.081Z,28.30
2022-10-24T07:06:37.231Z,28.00
2022-10-24T07:09:05.713Z,28.30
2022-10-24T07:11:34.464Z,28.40
2022-10-24T07:14:04.479Z,27.80
2022-10-24T07:16:34.663Z,27.30
2022-10-24T07:19:02.735Z,26.90
2022-10-24T07:21:32.558Z,28.20
2022-10-24T07:24:00.880Z,26.10
2022-10-24T07:26:30.109Z,27.00
2022-10-24T07:31:35.313Z,26.50
2022-10-24T07:34:05.989Z,26.10
2022-10-24T07:36:33.680Z,25.80
2022-10-24T07:39:01.978Z,25.60
2022-10-24T07:41:31.128Z,26.10
2022-10-24T07:43:59.687Z,26.00
2022-10-24T07:46:27.378Z,25.60
2022-10-24T07:48:55.381Z,24.60
2022-10-24T07:51:23.460Z,24.10
2022-10-24T07:53:51.002Z,23.80
2022-10-24T07:56:18.731Z,22.90
2022-10-24T07:58:47.008Z,23.70
2022-10-24T08:01:20.137Z,22.90
2022-10-24T08:03:47.792Z,23.00
2022-10-24T08:06:18.485Z,22.00
2022-10-24T08:08:46.060Z,21.30
2022-10-24T08:11:19.349Z,22.10
2022-10-24T08:13:47.215Z,22.20
2022-10-24T08:16:16.505Z,23.10
2022-10-24T08:18:44.225Z,23.70
2022-10-24T08:21:13.900Z,23.30
2022-10-24T08:23:44.107Z,21.20
2022-10-24T08:26:13.868Z,20.90
2022-10-24T08:28:42.328Z,20.90
2022-10-24T08:31:12.800Z,20.90
2022-10-24T08:33:41.015Z,20.60
2022-10-24T08:36:18.621Z,20.30
2022-10-24T08:38:46.346Z,20.90
2022-10-24T08:41:24.575Z,20.40
2022-10-24T08:43:53.702Z,18.80
2022-10-24T08:46:39.366Z,19.40
2022-10-24T08:49:50.708Z,19.10
2022-10-24T08:52:31.851Z,19.10
2022-10-24T08:55:04.879Z,19.10
2022-10-24T08:57:35.267Z,18.40
2022-10-24T09:00:11.446Z,17.00
2022-10-24T09:02:39.829Z,17.10
2022-10-24T09:05:20.956Z,17.10
2022-10-24T09:07:55.568Z,16.90
2022-10-24T09:10:30.789Z,17.20
2022-10-24T09:12:58.344Z,15.80
2022-10-24T09:15:29.651Z,17.00
2022-10-24T09:17:59.512Z,16.90
2022-10-24T09:20:29.611Z,16.50
2022-10-24T09:22:58.979Z,16.70
2022-10-24T09:25:30.306Z,17.20
2022-10-24T09:27:59.147Z,16.00
2022-10-24T09:30:31.366Z,16.30
2022-10-24T09:33:18.289Z,15.90
2022-10-24T09:35:52.936Z,15.60
2022-10-24T09:38:25.404Z,15.40
2022-10-24T09:40:55.751Z,14.80
2022-10-24T09:43:46.843Z,15.30
2022-10-24T09:46:39.680Z,16.10
2022-10-24T09:49:19.595Z,14.10
2022-10-24T09:51:50.528Z,14.00
2022-10-24T09:54:17.994Z,14.10
2022-10-24T09:56:54.450Z,13.10
2022-10-24T09:59:36.149Z,13.20
2022-10-24T10:02:34.463Z,13.80
2022-10-24T10:05:02.188Z,13.50
2022-10-24T10:07:35.785Z,13.20
2022-10-24T10:10:25.771Z,13.00
2022-10-24T10:12:58.327Z,12.40
2022-10-24T10:15:30.600Z,12.80
2022-10-24T10:18:03.985Z,11.90
2022-10-24T10:20:40.620Z,12.30
2022-10-24T10:23:20.647Z,11.10
2022-10-24T10:25:48.112Z,11.90
2022-10-24T10:28:20.894Z,11.30
2022-10-24T10:30:56.317Z,11.90
2022-10-24T10:36:20.181Z,11.80
2022-10-24T10:39:13.517Z,11.20
2022-10-24T10:41:46.823Z,10.50
2022-10-24T10:44:40.506Z,11.40
2022-10-24T10:47:27.680Z,11.80
2022-10-24T10:49:58.155Z,10.80
2022-10-24T10:52:31.761Z,10.40
2022-10-24T10:55:21.153Z,9.90
2022-10-24T10:58:13.374Z,9.00
2022-10-24T11:00:58.710Z,8.90
2022-10-24T11:03:34.373Z,10.10
2022-10-24T11:06:22.877Z,10.20
2022-10-24T11:09:30.207Z,10.00
2022-10-24T11:12:06.410Z,8.90
2022-10-24T11:14:40.453Z,9.40
2022-10-24T11:17:15.785Z,9.30
2022-10-24T11:19:55.058Z,9.80
2022-10-24T11:22:29.864Z,8.10
2022-10-24T11:25:28.881Z,8.10
2022-10-24T11:28:12.540Z,8.70
2022-10-24T11:31:00.284Z,8.00
2022-10-24T11:33:32.421Z,8.00
2022-10-24T11:36:19.815Z,8.10
2022-10-24T11:39:03.673Z,8.30
2022-10-24T11:41:58.808Z,7.40
2022-10-24T11:44:35.021Z,8.20
2022-10-24T11:47:24.051Z,7.70
2022-10-24T11:49:59.949Z,7.40
2022-10-24T11:52:31.095Z,7.30
2022-10-24T11:55:04.308Z,7.70
2022-10-24T11:57:32.172Z,7.80
2022-10-24T11:59:59.830Z,6.90
2022-10-24T12:02:49.683Z,6.70
2022-10-24T12:05:42.312Z,6.40
2022-10-24T12:08:42.315Z,6.70
2022-10-24T12:11:31.728Z,7.10
2022-10-24T12:14:22.901Z,6.70
2022-10-24T12:17:16.901Z,6.50
2022-10-24T12:19:45.313Z,6.20
2022-10-24T12:22:17.715Z,6.90
2022-10-24T12:24:45.519Z,6.30
2022-10-24T12:27:28.255Z,6.60
2022-10-24T12:30:18.316Z,6.40
2022-10-24T12:32:49.594Z,7.10
2022-10-24T12:35:35.619Z,6.10
2022-10-24T12:38:15.237Z,6.30
2022-10-24T12:40:51.531Z,6.40
2022-10-24T12:43:43.361Z,6.20
2022-10-24T12:46:22.699Z,6.50
2022-10-24T12:48:56.580Z,6.30
2022-10-24T12:51:29.056Z,6.00
2022-10-24T12:54:11.897Z,6.80
2022-10-24T12:56:52.559Z,6.50
2022-10-24T12:59:22.408Z,6.10
2022-10-24T13:01:52.116Z,6.10
2022-10-24T13:04:50.171Z,6.60
2022-10-24T13:07:30.273Z,6.60
2022-10-24T13:10:12.947Z,6.20
2022-10-24T13:12:58.272Z,7.00
2022-10-24T13:15:41.791Z,6.20
2022-10-24T13:18:21.539Z,6.20
2022-10-24T13:20:52.436Z,7.30
2022-10-24T13:23:25.038Z,6.70
2022-10-24T13:25:59.443Z,7.00
2022-10-24T13:28:30.318Z,6.10
2022-10-24T13:30:57.856Z,6.30
2022-10-24T13:33:32.186Z,6.50
2022-10-24T13:36:09.081Z,6.40
2022-10-24T13:38:41.755Z,7.00
2022-10-24T13:41:11.632Z,6.10
2022-10-24T13:43:44.817Z,6.30
2022-10-24T13:46:23.818Z,6.80
2022-10-24T13:48:52.552Z,6.80
2022-10-24T13:51:24.093Z,6.30
2022-10-24T13:53:59.425Z,6.10
2022-10-24T13:56:27.960Z,6.70
2022-10-24T13:58:55.592Z,7.10
2022-10-24T14:01:25.874Z,6.10
2022-10-24T14:03:54.816Z,6.80
2022-10-24T14:06:27.914Z,6.60
2022-10-24T14:09:06.476Z,7.10
2022-10-24T14:11:39.946Z,6.00
2022-10-24T14:14:34.453Z,7.20
2022-10-24T14:17:22.121Z,6.90
2022-10-24T14:20:11.159Z,7.30
2022-10-24T14:22:40.367Z,7.30
2022-10-24T14:25:36.514Z,7.50
2022-10-24T14:28:20.228Z,7.20
2022-10-24T14:30:59.003Z,7.70
2022-10-24T14:33:42.910Z,8.50
2022-10-24T14:36:10.674Z,7.70
2022-10-24T14:38:38.765Z,7.80
2022-10-24T14:41:10.285Z,7.10
2022-10-24T14:43:42.173Z,7.40
2022-10-24T14:46:13.321Z,6.80
2022-10-24T14:48:46.742Z,6.50
2022-10-24T14:51:31.130Z,6.90
2022-10-24T14:54:01.773Z,7.10
2022-10-24T14:56:33.151Z,6.90
2022-10-24T14:59:03.724Z,7.80
2022-10-24T15:01:31.748Z,7.60
2022-10-24T15:04:04.187Z,8.00
2022-10-24T15:06:40.457Z,8.20
2022-10-24T15:09:10.753Z,8.50
2022-10-24T15:11:43.856Z,8.30
2022-10-24T15:14:37.411Z,8.30
2022-10-24T15:17:17.260Z,8.00
2022-10-24T15:19:45.331Z,7.90
2022-10-24T15:22:32.171Z,7.80
2022-10-24T15:25:06.542Z,7.50
2022-10-24T15:27:41.905Z,7.70
2022-10-24T15:30:21.074Z,7.60
2022-10-24T15:32:50.569Z,7.40
2022-10-24T15:35:18.604Z,8.60
2022-10-24T15:37:54.702Z,9.10
2022-10-24T15:40:28.471Z,8.30
2022-10-24T15:42:56.212Z,8.60
2022-10-24T15:45:24.107Z,8.80
2022-10-24T15:47:53.062Z,9.20
2022-10-24T15:52:57.144Z,9.10
2022-10-24T15:55:26.809Z,8.50
2022-10-24T15:57:55.057Z,9.10
2022-10-24T16:00:23.444Z,8.80
2022-10-24T16:02:52.915Z,7.80
2022-10-24T16:05:22.754Z,8.50
2022-10-24T16:07:53.824Z,9.00
2022-10-24T16:10:22.550Z,8.50
2022-10-24T16:12:51.245Z,8.80
2022-10-24T16:15:22.231Z,7.70
2022-10-24T16:17:49.843Z,8.00
2022-10-24T16:20:17.620Z,7.70
2022-10-24T16:22:45.644Z,8.40
2022-10-24T16:25:34.107Z,8.40
2022-10-24T16:28:02.728Z,8.80
2022-10-24T16:30:32.073Z,9.20
2022-10-24T16:32:59.913Z,9.40
2022-10-24T16:35:33.849Z,26.30
2022-10-24T16:38:02.346Z,23.00
2022-10-24T16:40:30.320Z,14.50
2022-10-24T16:42:59.285Z,12.50
2022-10-24T16:45:26.981Z,11.50
2022-10-24T16:47:54.499Z,10.50
2022-10-24T16:50:28.729Z,10.70
2022-10-24T16:52:59.908Z,11.00
2022-10-24T16:55:28.860Z,10.80
2022-10-24T16:57:56.946Z,10.20
2022-10-24T17:00:25.724Z,10.70
2022-10-24T17:02:54.667Z,10.00
2022-10-24T17:05:24.589Z,10.30
2022-10-24T17:07:52.889Z,11.70
2022-10-24T17:10:23.801Z,10.60
2022-10-24T17:12:53.014Z,11.30
2022-10-24T17:15:22.274Z,10.70
2022-10-24T17:17:50.538Z,10.40
2022-10-24T17:20:18.624Z,10.90
2022-10-24T17:22:46.626Z,10.60
2022-10-24T17:25:23.368Z,11.60
2022-10-24T17:27:51.915Z,11.10
2022-10-24T17:30:23.293Z,11.70
2022-10-24T17:32:51.399Z,11.70
2022-10-24T17:35:20.886Z,12.10
2022-10-24T17:38:12.321Z,11.40
2022-10-24T17:40:42.963Z,11.60
2022-10-24T17:43:27.722Z,11.70
2022-10-24T17:45:56.877Z,11.80
2022-10-24T17:48:24.607Z,12.70
2022-10-24T17:50:55.625Z,12.10
2022-10-24T17:53:23.323Z,13.10
2022-10-24T17:55:50.955Z,13.70
2022-10-24T17:58:18.470Z,13.10
2022-10-24T18:00:46.474Z,12.90
2022-10-24T18:03:14.999Z,14.10
2022-10-24T18:05:42.551Z,14.00
2022-10-24T18:08:11.590Z,14.70
2022-10-24T18:10:40.124Z,14.10
2022-10-24T18:13:09.325Z,15.50
2022-10-24T18:15:37.854Z,15.20
2022-10-24T18:18:05.637Z,15.50
2022-10-24T18:20:34.662Z,14.90
2022-10-24T18:23:02.851Z,16.20
2022-10-24T18:25:30.403Z,16.20
2022-10-24T18:27:58.193Z,17.30
2022-10-24T18:30:27.314Z,18.10
2022-10-24T18:32:55.022Z,19.00
2022-10-24T18:35:22.699Z,19.60
2022-10-24T18:40:18.821Z,19.70
2022-10-24T18:43:01.503Z,19.50
2022-10-24T18:45:29.924Z,20.50
2022-10-24T18:47:58.079Z,19.80
2022-10-24T18:50:26.288Z,20.60
2022-10-24T18:53:09.793Z,20.40
2022-10-24T18:55:37.699Z,19.10
2022-10-24T18:58:10.980Z,20.50
2022-10-24T19:00:39.591Z,19.40
2022-10-24T19:03:16.657Z,19.60
2022-10-24T19:05:53.820Z,19.50
2022-10-24T19:08:25.299Z,19.00
2022-10-24T19:10:56.305Z,18.70
2022-10-24T19:13:25.764Z,19.30
2022-10-24T19:15:58.515Z,19.40
2022-10-24T19:18:28.255Z,19.30
2022-10-24T19:20:55.863Z,18.40
2022-10-24T19:23:24.659Z,18.80
2022-10-24T19:25:52.456Z,19.40
2022-10-24T19:28:20.502Z,18.20
2022-10-24T19:30:48.481Z,19.40
2022-10-24T19:33:16.661Z,18.30
2022-10-24T19:35:47.224Z,18.80
2022-10-24T19:38:16.484Z,19.40
2022-10-24T19:40:45.745Z,18.20
2022-10-24T19:43:13.857Z,18.80
2022-10-24T19:45:49.983Z,18.40
2022-10-24T19:52:42.488Z,17.70
2022-10-24T19:55:09.989Z,17.90
2022-10-24T19:57:37.589Z,17.80
2022-10-24T20:00:05.617Z,17.80
2022-10-24T20:02:39.395Z,17.80
2022-10-24T20:05:07.665Z,17.40
2022-10-24T20:07:35.169Z,17.10
2022-10-24T20:10:03.094Z,17.00
2022-10-24T20:12:30.585Z,16.80
2022-10-24T20:14:58.140Z,17.10
2022-10-24T20:17:25.632Z,17.20
2022-10-24T20:19:53.159Z,16.70
2022-10-24T20:22:20.683Z,16.40
2022-10-24T20:24:48.282Z,16.30
2022-10-24T20:27:17.174Z,16.50
2022-10-24T20:29:45.657Z,17.40
2022-10-24T20:32:13.225Z,16.50
2022-10-24T20:34:41.256Z,16.10
2022-10-24T20:37:09.422Z,16.10
2022-10-24T20:39:37.910Z,16.40
2022-10-24T20:42:05.903Z,16.50
2022-10-24T20:44:33.486Z,16.50
2022-10-24T20:47:00.987Z,15.80
2022-10-24T20:49:28.489Z,16.10
2022-10-24T20:51:56.314Z,15.90
2022-10-24T20:54:23.912Z,15.50
2022-10-24T20:56:51.473Z,18.80
2022-10-24T20:59:19.077Z,17.60
2022-10-24T21:01:46.755Z,19.90
2022-10-24T21:04:17.039Z,18.50
2022-10-24T21:06:47.786Z,17.60
2022-10-24T21:09:15.393Z,18.40
2022-10-24T21:11:43.480Z,17.00
2022-10-24T21:14:13.423Z,17.90
2022-10-24T21:16:40.930Z,16.70
2022-10-24T21:19:08.484Z,17.80
2022-10-24T21:21:36.027Z,17.40
2022-10-24T21:24:05.769Z,18.70
2022-10-24T21:26:39.603Z,18.60
2022-10-24T21:29:20.626Z,19.90
2022-10-24T21:31:55.702Z,19.30
2022-10-24T21:34:23.456Z,19.20
2022-10-24T21:36:50.960Z,20.00
2022-10-24T21:39:18.586Z,21.30
2022-10-24T21:41:46.461Z,20.00
2022-10-24T21:44:14.458Z,19.40
2022-10-24T21:46:42.278Z,20.60
2022-10-24T21:49:11.072Z,20.00
2022-10-24T21:51:39.388Z,19.30
2022-10-24T21:54:14.533Z,19.60
2022-10-24T21:56:42.082Z,18.70
2022-10-24T21:59:13.478Z,17.30
2022-10-24T22:01:42.179Z,18.60
2022-10-24T22:04:11.336Z,17.90
2022-10-24T22:06:39.541Z,18.70
2022-10-24T22:09:08.600Z,18.80
2022-10-24T22:11:37.208Z,19.20
2022-10-24T22:14:05.973Z,18.60
2022-10-24T22:16:34.097Z,18.70
2022-10-24T22:19:03.442Z,17.60
2022-10-24T22:21:37.217Z,17.40
2022-10-24T22:24:10.290Z,16.50
2022-10-24T22:26:38.890Z,13.70
2022-10-24T22:29:07.615Z,12.30
2022-10-24T22:31:36.020Z,12.80
2022-10-24T22:34:04.078Z,13.20
2022-10-24T22:37:05.449Z,12.70
2022-10-24T22:39:33.320Z,13.10
2022-10-24T22:42:01.088Z,12.10
2022-10-24T22:44:29.185Z,11.50
2022-10-24T22:46:59.068Z,10.60
2022-10-24T22:49:51.752Z,9.90
2022-10-24T22:52:19.632Z,9.40
2022-10-24T22:54:47.405Z,7.90
2022-10-24T22:57:15.752Z,6.70
2022-10-24T22:59:43.636Z,6.30
2022-10-24T23:02:34.101Z,6.20
2022-10-24T23:05:19.411Z,7.10
2022-10-24T23:07:57.024Z,7.60
2022-10-24T23:10:25.976Z,6.70
2022-10-24T23:12:53.861Z,6.30
2022-10-24T23:15:22.299Z,6.50
2022-10-24T23:17:50.804Z,10.20
2022-10-24T23:20:31.155Z,7.60
2022-10-24T23:23:16.064Z,69.90
2022-10-24T23:25:50.198Z,40.70
2022-10-24T23:28:33.819Z,6.10
2022-10-24T23:33:34.367Z,7.00
2022-10-24T23:36:02.095Z,7.40
2022-10-24T23:38:29.874Z,6.30
2022-10-24T23:40:57.569Z,6.40
2022-10-24T23:43:25.379Z,7.90
2022-10-24T23:45:59.670Z,13.50
2022-10-24T23:48:34.427Z,16.80
2022-10-24T23:51:10.543Z,18.90
2022-10-24T23:53:51.358Z,19.30
2022-10-24T23:56:29.260Z,20.20
2022-10-24T23:58:56.828Z,20.10
